sensor_id;sensor_type;location;lat;lon;timestamp;temperature;humidity
9167;DHT22;4618;48.818;9.088;2022-07-30T00:01:06;17.50;99.90
9167;DHT22;4618;48.818;9.088;2022-07-30T00:03:32;17.50;1.00
9167;DHT22;4618;48.818;9.088;2022-07-30T00:05:58;17.60;1.00
9167;DHT22;4618;48.818;9.088;2022-07-30T00:08:24;17.60;99.90
9167;DHT22;4618;48.818;9.088;2022-07-30T00:10:50;17.40;1.00
9167;DHT22;4618;48.818;9.088;2022-07-30T00:13:16;17.10;1.00
9167;DHT22;4618;48.818;9.088;2022-07-30T00:15:42;17.10;1.00
9167;DHT22;4618;48.818;9.088;2022-07-30T00:18:07;17.20;1.00
9167;DHT22;4618;48.818;9.088;2022-07-30T00:20:33;17.30;1.00
9167;DHT22;4618;48.818;9.088;2022-07-30T00:23:02;17.50;99.90
9167;DHT22;4618;48.818;9.088;2022-07-30T00:25:28;17.70;99.90
9167;DHT22;4618;48.818;9.088;2022-07-30T00:27:54;17.80;99.90
9167;DHT22;4618;48.818;9.088;2022-07-30T00:30:20;17.90;99.90
9167;DHT22;4618;48.818;9.088;2022-07-30T00:32:46;18.00;99.90
9167;DHT22;4618;48.818;9.088;2022-07-30T00:35:11;18.10;1.00
9167;DHT22;4618;48.818;9.088;2022-07-30T00:37:37;18.30;99.90
9167;DHT22;4618;48.818;9.088;2022-07-30T00:40:03;18.30;99.90
9167;DHT22;4618;48.818;9.088;2022-07-30T00:42:55;18.30;99.90
9167;DHT22;4618;48.818;9.088;2022-07-30T00:45:21;18.30;99.90
9167;DHT22;4618;48.818;9.088;2022-07-30T00:47:46;18.30;99.90
9167;DHT22;4618;48.818;9.088;2022-07-30T00:50:13;18.30;99.90
9167;DHT22;4618;48.818;9.088;2022-07-30T00:52:40;18.30;99.90
9167;DHT22;4618;48.818;9.088;2022-07-30T00:55:07;18.30;99.90
9167;DHT22;4618;48.818;9.088;2022-07-30T00:57:34;18.20;99.90
9167;DHT22;4618;48.818;9.088;2022-07-30T00:59:59;18.30;1.00
9167;DHT22;4618;48.818;9.088;2022-07-30T01:02:25;18.30;1.00
9167;DHT22;4618;48.818;9.088;2022-07-30T01:04:50;18.20;1.00
9167;DHT22;4618;48.818;9.088;2022-07-30T01:07:16;18.20;1.00
9167;DHT22;4618;48.818;9.088;2022-07-30T01:09:42;18.10;1.00
9167;DHT22;4618;48.818;9.088;2022-07-30T01:12:09;18.10;1.00
9167;DHT22;4618;48.818;9.088;2022-07-30T01:14:36;18.20;99.90
9167;DHT22;4618;48.818;9.088;2022-07-30T01:17:02;18.20;99.90
9167;DHT22;4618;48.818;9.088;2022-07-30T01:19:32;18.10;99.90
9167;DHT22;4618;48.818;9.088;2022-07-30T01:25:03;17.90;99.90
9167;DHT22;4618;48.818;9.088;2022-07-30T01:27:33;17.90;99.90
9167;DHT22;4618;48.818;9.088;2022-07-30T01:30:02;17.80;99.90
9167;DHT22;4618;48.818;9.088;2022-07-30T01:32:30;17.70;99.90
9167;DHT22;4618;48.818;9.088;2022-07-30T01:34:58;17.70;99.90
9167;DHT22;4618;48.818;9.088;2022-07-30T01:37:25;17.70;99.90
9167;DHT22;4618;48.818;9.088;2022-07-30T01:39:51;17.70;99.90
9167;DHT22;4618;48.818;9.088;2022-07-30T01:42:18;17.70;99.90
9167;DHT22;4618;48.818;9.088;2022-07-30T01:44:45;17.70;99.90
9167;DHT22;4618;48.818;9.088;2022-07-30T01:47:13;17.70;99.90
9167;DHT22;4618;48.818;9.088;2022-07-30T01:49:40;17.70;99.90
9167;DHT22;4618;48.818;9.088;2022-07-30T01:52:07;17.70;99.90
9167;DHT22;4618;48.818;9.088;2022-07-30T01:54:34;17.70;99.90
9167;DHT22;4618;48.818;9.088;2022-07-30T01:57:02;17.60;99.90
9167;DHT22;4618;48.818;9.088;2022-07-30T01:59:30;17.60;99.90
9167;DHT22;4618;48.818;9.088;2022-07-30T02:01:56;17.60;99.90
9167;DHT22;4618;48.818;9.088;2022-07-30T02:04:22;17.60;99.90
9167;DHT22;4618;48.818;9.088;2022-07-30T02:07:03;17.60;99.90
9167;DHT22;4618;48.818;9.088;2022-07-30T02:09:34;17.50;99.90
9167;DHT22;4618;48.818;9.088;2022-07-30T02:12:01;17.50;99.90
9167;DHT22;4618;48.818;9.088;2022-07-30T02:14:51;17.40;99.90
9167;DHT22;4618;48.818;9.088;2022-07-30T02:17:23;17.30;1.00
9167;DHT22;4618;48.818;9.088;2022-07-30T02:19:52;17.20;1.00
9167;DHT22;4618;48.818;9.088;2022-07-30T02:22:20;17.20;1.00
9167;DHT22;4618;48.818;9.088;2022-07-30T02:24:48;17.30;1.00
9167;DHT22;4618;48.818;9.088;2022-07-30T02:27:26;17.20;1.00
9167;DHT22;4618;48.818;9.088;2022-07-30T02:29:56;17.20;1.00
9167;DHT22;4618;48.818;9.088;2022-07-30T02:32:24;17.20;1.00
9167;DHT22;4618;48.818;9.088;2022-07-30T02:34:54;17.20;1.00
9167;DHT22;4618;48.818;9.088;2022-07-30T02:37:21;17.10;1.00
9167;DHT22;4618;48.818;9.088;2022-07-30T02:39:49;17.10;1.00
9167;DHT22;4618;48.818;9.088;2022-07-30T02:42:18;17.10;1.00
9167;DHT22;4618;48.818;9.088;2022-07-30T02:44:44;17.10;1.00
9167;DHT22;4618;48.818;9.088;2022-07-30T02:47:12;17.00;1.00
9167;DHT22;4618;48.818;9.088;2022-07-30T02:49:39;17.00;1.00
9167;DHT22;4618;48.818;9.088;2022-07-30T02:52:07;17.00;1.00
9167;DHT22;4618;48.818;9.088;2022-07-30T02:54:38;16.90;1.00
9167;DHT22;4618;48.818;9.088;2022-07-30T02:57:05;17.00;1.00
9167;DHT22;4618;48.818;9.088;2022-07-30T02:59:32;16.90;1.00
9167;DHT22;4618;48.818;9.088;2022-07-30T03:02:01;16.90;1.00
9167;DHT22;4618;48.818;9.088;2022-07-30T03:04:28;16.90;1.00
9167;DHT22;4618;48.818;9.088;2022-07-30T03:06:55;16.70;1.00
9167;DHT22;4618;48.818;9.088;2022-07-30T03:09:22;16.70;1.00
9167;DHT22;4618;48.818;9.088;2022-07-30T03:11:50;16.60;1.00
9167;DHT22;4618;48.818;9.088;2022-07-30T03:14:16;16.60;1.00
9167;DHT22;4618;48.818;9.088;2022-07-30T03:16:47;16.60;1.00
9167;DHT22;4618;48.818;9.088;2022-07-30T03:19:16;16.70;1.00
9167;DHT22;4618;48.818;9.088;2022-07-30T03:21:45;16.70;99.90
9167;DHT22;4618;48.818;9.088;2022-07-30T03:24:12;16.70;99.90
9167;DHT22;4618;48.818;9.088;2022-07-30T03:26:39;16.70;99.90
9167;DHT22;4618;48.818;9.088;2022-07-30T03:29:07;16.60;99.90
9167;DHT22;4618;48.818;9.088;2022-07-30T03:31:34;16.50;99.90
9167;DHT22;4618;48.818;9.088;2022-07-30T03:34:01;16.50;99.90
9167;DHT22;4618;48.818;9.088;2022-07-30T03:36:27;16.50;99.90
9167;DHT22;4618;48.818;9.088;2022-07-30T03:38:53;16.50;1.00
9167;DHT22;4618;48.818;9.088;2022-07-30T03:41:20;16.40;1.00
9167;DHT22;4618;48.818;9.088;2022-07-30T03:43:46;16.40;1.00
9167;DHT22;4618;48.818;9.088;2022-07-30T03:46:13;16.40;1.00
9167;DHT22;4618;48.818;9.088;2022-07-30T03:48:38;16.40;1.00
9167;DHT22;4618;48.818;9.088;2022-07-30T03:51:06;16.40;1.00
9167;DHT22;4618;48.818;9.088;2022-07-30T03:53:33;16.40;1.00
9167;DHT22;4618;48.818;9.088;2022-07-30T03:55:59;16.40;1.00
9167;DHT22;4618;48.818;9.088;2022-07-30T03:58:25;16.30;1.00
9167;DHT22;4618;48.818;9.088;2022-07-30T04:00:50;16.30;15.60
9167;DHT22;4618;48.818;9.088;2022-07-30T04:03:26;16.30;57.20
9167;DHT22;4618;48.818;9.088;2022-07-30T04:05:52;16.20;53.70
9167;DHT22;4618;48.818;9.088;2022-07-30T04:10:49;16.20;15.10
9167;DHT22;4618;48.818;9.088;2022-07-30T04:13:15;16.30;1.00
9167;DHT22;4618;48.818;9.088;2022-07-30T04:15:55;16.30;1.00
9167;DHT22;4618;48.818;9.088;2022-07-30T04:18:23;16.30;1.00
9167;DHT22;4618;48.818;9.088;2022-07-30T04:20:52;16.40;1.00
9167;DHT22;4618;48.818;9.088;2022-07-30T04:23:19;16.40;1.00
9167;DHT22;4618;48.818;9.088;2022-07-30T04:25:45;16.50;1.00
9167;DHT22;4618;48.818;9.088;2022-07-30T04:28:11;16.50;99.90
9167;DHT22;4618;48.818;9.088;2022-07-30T04:30:38;16.60;99.90
9167;DHT22;4618;48.818;9.088;2022-07-30T04:33:05;16.60;99.90
9167;DHT22;4618;48.818;9.088;2022-07-30T04:35:33;16.70;99.90
9167;DHT22;4618;48.818;9.088;2022-07-30T04:37:59;16.70;91.30
9167;DHT22;4618;48.818;9.088;2022-07-30T04:40:27;16.80;7.10
9167;DHT22;4618;48.818;9.088;2022-07-30T04:42:52;16.80;1.00
9167;DHT22;4618;48.818;9.088;2022-07-30T04:45:18;16.80;1.00
9167;DHT22;4618;48.818;9.088;2022-07-30T04:47:45;17.00;1.00
9167;DHT22;4618;48.818;9.088;2022-07-30T04:50:11;16.90;1.00
9167;DHT22;4618;48.818;9.088;2022-07-30T04:52:38;17.00;1.00
9167;DHT22;4618;48.818;9.088;2022-07-30T04:55:06;17.10;1.00
9167;DHT22;4618;48.818;9.088;2022-07-30T04:57:32;17.10;1.00
9167;DHT22;4618;48.818;9.088;2022-07-30T05:00:00;17.20;1.00
9167;DHT22;4618;48.818;9.088;2022-07-30T05:02:29;17.30;99.90
9167;DHT22;4618;48.818;9.088;2022-07-30T05:04:55;17.30;99.90
9167;DHT22;4618;48.818;9.088;2022-07-30T05:07:22;17.40;99.90
9167;DHT22;4618;48.818;9.088;2022-07-30T05:09:48;17.50;99.90
9167;DHT22;4618;48.818;9.088;2022-07-30T05:12:14;17.50;99.90
9167;DHT22;4618;48.818;9.088;2022-07-30T05:14:40;17.60;99.90
9167;DHT22;4618;48.818;9.088;2022-07-30T05:17:06;17.60;99.90
9167;DHT22;4618;48.818;9.088;2022-07-30T05:19:32;17.60;99.90
9167;DHT22;4618;48.818;9.088;2022-07-30T05:21:58;17.60;99.90
9167;DHT22;4618;48.818;9.088;2022-07-30T05:24:23;17.70;99.90
9167;DHT22;4618;48.818;9.088;2022-07-30T05:26:49;17.80;79.50
9167;DHT22;4618;48.818;9.088;2022-07-30T05:29:15;18.00;1.00
9167;DHT22;4618;48.818;9.088;2022-07-30T05:31:40;18.10;1.00
9167;DHT22;4618;48.818;9.088;2022-07-30T05:34:06;18.20;1.00
9167;DHT22;4618;48.818;9.088;2022-07-30T05:36:32;18.20;1.00
9167;DHT22;4618;48.818;9.088;2022-07-30T05:38:58;18.30;1.00
9167;DHT22;4618;48.818;9.088;2022-07-30T05:41:23;18.40;1.00
9167;DHT22;4618;48.818;9.088;2022-07-30T05:43:49;18.40;1.00
9167;DHT22;4618;48.818;9.088;2022-07-30T05:46:15;18.60;1.00
9167;DHT22;4618;48.818;9.088;2022-07-30T05:48:40;18.70;1.00
9167;DHT22;4618;48.818;9.088;2022-07-30T05:51:06;18.80;1.00
9167;DHT22;4618;48.818;9.088;2022-07-30T05:53:31;18.90;1.00
9167;DHT22;4618;48.818;9.088;2022-07-30T05:55:57;19.00;1.00
9167;DHT22;4618;48.818;9.088;2022-07-30T05:58:23;19.10;1.00
9167;DHT22;4618;48.818;9.088;2022-07-30T06:00:49;19.20;99.90
9167;DHT22;4618;48.818;9.088;2022-07-30T06:03:14;19.50;99.90
9167;DHT22;4618;48.818;9.088;2022-07-30T06:05:40;19.70;99.90
9167;DHT22;4618;48.818;9.088;2022-07-30T06:08:06;19.90;99.90
9167;DHT22;4618;48.818;9.088;2022-07-30T06:10:31;20.10;99.90
9167;DHT22;4618;48.818;9.088;2022-07-30T06:12:57;20.20;99.90
9167;DHT22;4618;48.818;9.088;2022-07-30T06:15:23;20.30;99.90
9167;DHT22;4618;48.818;9.088;2022-07-30T06:17:49;20.30;99.90
9167;DHT22;4618;48.818;9.088;2022-07-30T06:20:16;20.40;99.90
9167;DHT22;4618;48.818;9.088;2022-07-30T06:22:42;20.50;99.90
9167;DHT22;4618;48.818;9.088;2022-07-30T06:25:08;20.60;99.90
9167;DHT22;4618;48.818;9.088;2022-07-30T06:27:35;20.70;99.90
9167;DHT22;4618;48.818;9.088;2022-07-30T06:30:02;20.70;99.90
9167;DHT22;4618;48.818;9.088;2022-07-30T06:32:28;20.60;99.90
9167;DHT22;4618;48.818;9.088;2022-07-30T06:34:54;20.70;99.90
9167;DHT22;4618;48.818;9.088;2022-07-30T06:37:19;20.80;99.90
9167;DHT22;4618;48.818;9.088;2022-07-30T06:39:45;20.70;99.90
9167;DHT22;4618;48.818;9.088;2022-07-30T06:42:11;20.80;99.90
9167;DHT22;4618;48.818;9.088;2022-07-30T06:44:36;20.90;99.90
9167;DHT22;4618;48.818;9.088;2022-07-30T06:47:02;21.10;99.90
9167;DHT22;4618;48.818;9.088;2022-07-30T06:49:30;21.20;99.90
9167;DHT22;4618;48.818;9.088;2022-07-30T06:51:56;21.30;99.90
9167;DHT22;4618;48.818;9.088;2022-07-30T06:54:22;21.30;99.90
9167;DHT22;4618;48.818;9.088;2022-07-30T06:56:47;21.60;99.90
9167;DHT22;4618;48.818;9.088;2022-07-30T06:59:13;21.70;99.90
9167;DHT22;4618;48.818;9.088;2022-07-30T07:01:38;21.70;99.90
9167;DHT22;4618;48.818;9.088;2022-07-30T07:04:04;21.60;99.90
9167;DHT22;4618;48.818;9.088;2022-07-30T07:06:30;21.60;99.90
9167;DHT22;4618;48.818;9.088;2022-07-30T07:08:55;21.70;99.90
9167;DHT22;4618;48.818;9.088;2022-07-30T07:11:21;21.70;99.90
9167;DHT22;4618;48.818;9.088;2022-07-30T07:13:46;21.70;99.90
9167;DHT22;4618;48.818;9.088;2022-07-30T07:16:12;21.70;99.90
9167;DHT22;4618;48.818;9.088;2022-07-30T07:18:37;21.80;99.90
9167;DHT22;4618;48.818;9.088;2022-07-30T07:21:03;21.90;99.90
9167;DHT22;4618;48.818;9.088;2022-07-30T07:23:29;21.90;99.90
9167;DHT22;4618;48.818;9.088;2022-07-30T07:25:54;21.90;99.90
9167;DHT22;4618;48.818;9.088;2022-07-30T07:28:20;22.00;99.90
9167;DHT22;4618;48.818;9.088;2022-07-30T07:30:46;22.00;99.90
9167;DHT22;4618;48.818;9.088;2022-07-30T07:33:12;22.10;99.90
9167;DHT22;4618;48.818;9.088;2022-07-30T07:35:37;22.20;99.90
9167;DHT22;4618;48.818;9.088;2022-07-30T07:38:03;22.40;99.90
9167;DHT22;4618;48.818;9.088;2022-07-30T07:40:28;22.60;99.90
9167;DHT22;4618;48.818;9.088;2022-07-30T07:42:54;22.90;99.90
9167;DHT22;4618;48.818;9.088;2022-07-30T07:45:20;23.30;99.90
9167;DHT22;4618;48.818;9.088;2022-07-30T07:47:47;23.60;99.90
9167;DHT22;4618;48.818;9.088;2022-07-30T07:50:15;23.90;99.90
9167;DHT22;4618;48.818;9.088;2022-07-30T07:52:40;24.40;99.90
9167;DHT22;4618;48.818;9.088;2022-07-30T07:55:06;24.80;99.90
9167;DHT22;4618;48.818;9.088;2022-07-30T07:57:43;24.80;99.90
9167;DHT22;4618;48.818;9.088;2022-07-30T08:00:12;25.00;99.90
9167;DHT22;4618;48.818;9.088;2022-07-30T08:02:42;25.30;99.90
9167;DHT22;4618;48.818;9.088;2022-07-30T08:05:09;25.80;99.90
9167;DHT22;4618;48.818;9.088;2022-07-30T08:07:38;26.20;99.90
9167;DHT22;4618;48.818;9.088;2022-07-30T08:10:04;25.80;99.90
9167;DHT22;4618;48.818;9.088;2022-07-30T08:12:30;25.60;99.90
9167;DHT22;4618;48.818;9.088;2022-07-30T08:14:56;25.80;99.90
9167;DHT22;4618;48.818;9.088;2022-07-30T08:17:21;25.70;99.90
9167;DHT22;4618;48.818;9.088;2022-07-30T08:19:47;26.00;99.90
9167;DHT22;4618;48.818;9.088;2022-07-30T08:22:13;26.30;99.90
9167;DHT22;4618;48.818;9.088;2022-07-30T08:24:38;26.60;99.90
9167;DHT22;4618;48.818;9.088;2022-07-30T08:27:04;26.30;99.90
9167;DHT22;4618;48.818;9.088;2022-07-30T08:29:29;26.50;99.90
9167;DHT22;4618;48.818;9.088;2022-07-30T08:31:55;27.00;99.90
9167;DHT22;4618;48.818;9.088;2022-07-30T08:34:21;27.20;99.90
9167;DHT22;4618;48.818;9.088;2022-07-30T08:36:47;27.10;99.90
9167;DHT22;4618;48.818;9.088;2022-07-30T08:39:12;26.90;99.90
9167;DHT22;4618;48.818;9.088;2022-07-30T08:41:38;27.00;99.90
9167;DHT22;4618;48.818;9.088;2022-07-30T08:44:09;27.30;99.90
9167;DHT22;4618;48.818;9.088;2022-07-30T08:46:35;27.30;99.90
9167;DHT22;4618;48.818;9.088;2022-07-30T08:49:03;27.00;99.90
9167;DHT22;4618;48.818;9.088;2022-07-30T08:51:29;27.20;99.90
9167;DHT22;4618;48.818;9.088;2022-07-30T08:53:55;27.60;99.90
9167;DHT22;4618;48.818;9.088;2022-07-30T08:56:22;28.00;99.90
9167;DHT22;4618;48.818;9.088;2022-07-30T08:58:47;28.10;99.90
9167;DHT22;4618;48.818;9.088;2022-07-30T09:01:13;27.90;99.90
9167;DHT22;4618;48.818;9.088;2022-07-30T09:03:39;28.20;99.90
9167;DHT22;4618;48.818;9.088;2022-07-30T09:06:05;28.30;99.90
9167;DHT22;4618;48.818;9.088;2022-07-30T09:08:31;29.20;99.90
9167;DHT22;4618;48.818;9.088;2022-07-30T09:10:57;29.50;99.90
9167;DHT22;4618;48.818;9.088;2022-07-30T09:13:28;29.20;99.90
9167;DHT22;4618;48.818;9.088;2022-07-30T09:15:55;28.00;99.90
9167;DHT22;4618;48.818;9.088;2022-07-30T09:18:34;27.70;99.90
9167;DHT22;4618;48.818;9.088;2022-07-30T09:21:13;28.50;99.90
9167;DHT22;4618;48.818;9.088;2022-07-30T09:23:40;28.40;99.90
9167;DHT22;4618;48.818;9.088;2022-07-30T09:26:05;27.10;99.90
9167;DHT22;4618;48.818;9.088;2022-07-30T09:28:33;27.10;99.90
9167;DHT22;4618;48.818;9.088;2022-07-30T09:30:59;27.90;99.90
9167;DHT22;4618;48.818;9.088;2022-07-30T09:33:42;28.00;99.90
9167;DHT22;4618;48.818;9.088;2022-07-30T09:36:12;27.70;99.90
9167;DHT22;4618;48.818;9.088;2022-07-30T09:38:50;27.20;99.90
9167;DHT22;4618;48.818;9.088;2022-07-30T09:41:20;26.60;99.90
9167;DHT22;4618;48.818;9.088;2022-07-30T09:43:56;26.50;99.90
9167;DHT22;4618;48.818;9.088;2022-07-30T09:46:22;27.50;99.90
9167;DHT22;4618;48.818;9.088;2022-07-30T09:49:15;28.70;99.90
9167;DHT22;4618;48.818;9.088;2022-07-30T09:51:41;29.40;99.70
9167;DHT22;4618;48.818;9.088;2022-07-30T09:54:07;29.70;98.90
9167;DHT22;4618;48.818;9.088;2022-07-30T09:56:32;30.10;97.60
9167;DHT22;4618;48.818;9.088;2022-07-30T09:58:58;30.70;94.60
9167;DHT22;4618;48.818;9.088;2022-07-30T10:01:23;29.50;99.90
9167;DHT22;4618;48.818;9.088;2022-07-30T10:03:49;29.30;94.30
9167;DHT22;4618;48.818;9.088;2022-07-30T10:06:14;29.90;93.10
9167;DHT22;4618;48.818;9.088;2022-07-30T10:08:47;29.60;92.10
9167;DHT22;4618;48.818;9.088;2022-07-30T10:11:19;29.80;91.10
9167;DHT22;4618;48.818;9.088;2022-07-30T10:13:49;29.80;89.60
9167;DHT22;4618;48.818;9.088;2022-07-30T10:16:15;30.40;89.80
9167;DHT22;4618;48.818;9.088;2022-07-30T10:18:41;31.00;86.20
9167;DHT22;4618;48.818;9.088;2022-07-30T10:21:07;31.10;86.30
9167;DHT22;4618;48.818;9.088;2022-07-30T10:23:34;31.10;83.90
9167;DHT22;4618;48.818;9.088;2022-07-30T10:26:00;30.70;82.90
9167;DHT22;4618;48.818;9.088;2022-07-30T10:28:26;31.10;80.00
9167;DHT22;4618;48.818;9.088;2022-07-30T10:30:54;31.30;80.70
9167;DHT22;4618;48.818;9.088;2022-07-30T10:33:25;32.00;78.40
9167;DHT22;4618;48.818;9.088;2022-07-30T10:35:50;31.80;72.20
9167;DHT22;4618;48.818;9.088;2022-07-30T10:38:20;30.70;75.00
9167;DHT22;4618;48.818;9.088;2022-07-30T10:40:47;31.10;74.60
9167;DHT22;4618;48.818;9.088;2022-07-30T10:49:13;32.80;65.40
9167;DHT22;4618;48.818;9.088;2022-07-30T10:51:50;32.40;71.50
9167;DHT22;4618;48.818;9.088;2022-07-30T10:54:35;31.50;73.60
9167;DHT22;4618;48.818;9.088;2022-07-30T10:57:10;32.20;74.00
9167;DHT22;4618;48.818;9.088;2022-07-30T11:02:15;32.80;72.00
9167;DHT22;4618;48.818;9.088;2022-07-30T11:04:41;32.90;69.10
9167;DHT22;4618;48.818;9.088;2022-07-30T11:09:52;30.80;70.90
9167;DHT22;4618;48.818;9.088;2022-07-30T11:15:06;31.10;70.20
9167;DHT22;4618;48.818;9.088;2022-07-30T11:18:07;32.30;69.40
9167;DHT22;4618;48.818;9.088;2022-07-30T11:20:34;32.40;64.90
9167;DHT22;4618;48.818;9.088;2022-07-30T11:23:35;31.80;65.80
9167;DHT22;4618;48.818;9.088;2022-07-30T11:26:01;31.30;64.20
9167;DHT22;4618;48.818;9.088;2022-07-30T11:28:35;31.10;66.50
9167;DHT22;4618;48.818;9.088;2022-07-30T11:31:01;32.10;64.60
9167;DHT22;4618;48.818;9.088;2022-07-30T11:33:27;32.10;64.30
9167;DHT22;4618;48.818;9.088;2022-07-30T11:36:10;32.30;60.10
9167;DHT22;4618;48.818;9.088;2022-07-30T11:38:56;32.40;61.00
9167;DHT22;4618;48.818;9.088;2022-07-30T11:41:22;32.30;59.30
9167;DHT22;4618;48.818;9.088;2022-07-30T11:43:48;32.60;58.90
9167;DHT22;4618;48.818;9.088;2022-07-30T11:46:34;32.30;58.30
9167;DHT22;4618;48.818;9.088;2022-07-30T11:49:01;31.20;59.00
9167;DHT22;4618;48.818;9.088;2022-07-30T11:51:44;32.10;59.60
9167;DHT22;4618;48.818;9.088;2022-07-30T11:54:10;33.20;56.20
9167;DHT22;4618;48.818;9.088;2022-07-30T11:59:54;32.80;54.30
9167;DHT22;4618;48.818;9.088;2022-07-30T12:02:26;34.00;51.30
9167;DHT22;4618;48.818;9.088;2022-07-30T12:04:52;34.10;49.10
9167;DHT22;4618;48.818;9.088;2022-07-30T12:07:24;32.50;49.40
9167;DHT22;4618;48.818;9.088;2022-07-30T12:09:50;32.00;50.70
9167;DHT22;4618;48.818;9.088;2022-07-30T12:12:23;31.30;72.00
9167;DHT22;4618;48.818;9.088;2022-07-30T12:14:50;30.10;50.50
9167;DHT22;4618;48.818;9.088;2022-07-30T12:17:16;30.50;52.70
9167;DHT22;4618;48.818;9.088;2022-07-30T12:19:46;32.40;50.60
9167;DHT22;4618;48.818;9.088;2022-07-30T12:22:11;33.70;48.90
9167;DHT22;4618;48.818;9.088;2022-07-30T12:24:37;33.70;44.50
9167;DHT22;4618;48.818;9.088;2022-07-30T12:27:07;33.10;45.00
9167;DHT22;4618;48.818;9.088;2022-07-30T12:29:33;33.40;67.40
9167;DHT22;4618;48.818;9.088;2022-07-30T12:31:59;34.30;42.80
9167;DHT22;4618;48.818;9.088;2022-07-30T12:34:26;34.20;39.70
9167;DHT22;4618;48.818;9.088;2022-07-30T12:36:52;33.10;40.10
9167;DHT22;4618;48.818;9.088;2022-07-30T12:39:25;32.90;42.20
9167;DHT22;4618;48.818;9.088;2022-07-30T12:41:52;33.30;41.90
9167;DHT22;4618;48.818;9.088;2022-07-30T12:44:41;34.40;40.10
9167;DHT22;4618;48.818;9.088;2022-07-30T12:47:20;35.10;36.60
9167;DHT22;4618;48.818;9.088;2022-07-30T12:49:48;32.80;34.20
9167;DHT22;4618;48.818;9.088;2022-07-30T12:52:30;30.70;40.00
9167;DHT22;4618;48.818;9.088;2022-07-30T12:57:23;29.20;46.50
9167;DHT22;4618;48.818;9.088;2022-07-30T13:00:00;29.20;44.50
9167;DHT22;4618;48.818;9.088;2022-07-30T13:02:34;30.70;45.00
9167;DHT22;4618;48.818;9.088;2022-07-30T13:05:01;30.90;41.90
9167;DHT22;4618;48.818;9.088;2022-07-30T13:07:27;29.60;42.00
9167;DHT22;4618;48.818;9.088;2022-07-30T13:10:11;30.10;44.30
9167;DHT22;4618;48.818;9.088;2022-07-30T13:12:37;31.90;42.80
9167;DHT22;4618;48.818;9.088;2022-07-30T13:15:04;32.80;39.50
9167;DHT22;4618;48.818;9.088;2022-07-30T13:17:29;32.90;37.40
9167;DHT22;4618;48.818;9.088;2022-07-30T13:19:55;32.60;37.80
9167;DHT22;4618;48.818;9.088;2022-07-30T13:22:21;33.60;36.80
9167;DHT22;4618;48.818;9.088;2022-07-30T13:24:46;34.10;34.10
9167;DHT22;4618;48.818;9.088;2022-07-30T13:27:12;34.30;53.50
9167;DHT22;4618;48.818;9.088;2022-07-30T13:29:37;34.00;33.20
9167;DHT22;4618;48.818;9.088;2022-07-30T13:32:03;32.80;32.40
9167;DHT22;4618;48.818;9.088;2022-07-30T13:34:29;32.40;36.30
9167;DHT22;4618;48.818;9.088;2022-07-30T13:36:54;32.50;35.60
9167;DHT22;4618;48.818;9.088;2022-07-30T13:39:20;32.00;36.90
9167;DHT22;4618;48.818;9.088;2022-07-30T13:41:45;32.10;36.50
9167;DHT22;4618;48.818;9.088;2022-07-30T13:44:11;32.70;34.90
9167;DHT22;4618;48.818;9.088;2022-07-30T13:46:36;34.00;32.20
9167;DHT22;4618;48.818;9.088;2022-07-30T13:49:02;32.80;31.20
9167;DHT22;4618;48.818;9.088;2022-07-30T13:51:29;30.70;35.60
9167;DHT22;4618;48.818;9.088;2022-07-30T13:53:54;30.20;39.00
9167;DHT22;4618;48.818;9.088;2022-07-30T13:56:20;31.50;36.80
9167;DHT22;4618;48.818;9.088;2022-07-30T13:58:46;32.10;35.70
9167;DHT22;4618;48.818;9.088;2022-07-30T14:01:12;32.90;34.10
9167;DHT22;4618;48.818;9.088;2022-07-30T14:03:37;32.80;32.90
9167;DHT22;4618;48.818;9.088;2022-07-30T14:06:03;32.80;33.00
9167;DHT22;4618;48.818;9.088;2022-07-30T14:08:28;33.10;31.80
9167;DHT22;4618;48.818;9.088;2022-07-30T14:10:56;31.80;32.00
9167;DHT22;4618;48.818;9.088;2022-07-30T14:13:22;31.70;34.10
9167;DHT22;4618;48.818;9.088;2022-07-30T14:15:48;32.40;32.00
9167;DHT22;4618;48.818;9.088;2022-07-30T14:18:14;33.20;31.30
9167;DHT22;4618;48.818;9.088;2022-07-30T14:20:40;33.30;31.00
9167;DHT22;4618;48.818;9.088;2022-07-30T14:23:06;33.40;30.00
9167;DHT22;4618;48.818;9.088;2022-07-30T14:25:31;34.20;28.50
9167;DHT22;4618;48.818;9.088;2022-07-30T14:27:57;33.60;27.80
9167;DHT22;4618;48.818;9.088;2022-07-30T14:30:23;32.00;28.20
9167;DHT22;4618;48.818;9.088;2022-07-30T14:32:49;30.70;30.00
9167;DHT22;4618;48.818;9.088;2022-07-30T14:35:15;29.60;33.10
9167;DHT22;4618;48.818;9.088;2022-07-30T14:37:40;29.10;35.20
9167;DHT22;4618;48.818;9.088;2022-07-30T14:40:08;29.40;35.20
9167;DHT22;4618;48.818;9.088;2022-07-30T14:42:35;29.50;36.30
9167;DHT22;4618;48.818;9.088;2022-07-30T14:45:06;30.20;35.30
9167;DHT22;4618;48.818;9.088;2022-07-30T14:47:31;31.40;54.20
9167;DHT22;4618;48.818;9.088;2022-07-30T14:49:57;31.80;31.50
9167;DHT22;4618;48.818;9.088;2022-07-30T14:52:23;31.60;31.00
9167;DHT22;4618;48.818;9.088;2022-07-30T14:54:50;31.50;31.20
9167;DHT22;4618;48.818;9.088;2022-07-30T14:57:16;31.50;30.70
9167;DHT22;4618;48.818;9.088;2022-07-30T14:59:42;31.30;31.80
9167;DHT22;4618;48.818;9.088;2022-07-30T15:02:07;30.50;31.50
9167;DHT22;4618;48.818;9.088;2022-07-30T15:04:33;29.50;32.10
9167;DHT22;4618;48.818;9.088;2022-07-30T15:06:58;28.60;35.20
9167;DHT22;4618;48.818;9.088;2022-07-30T15:09:24;28.50;35.40
9167;DHT22;4618;48.818;9.088;2022-07-30T15:11:49;28.70;36.40
9167;DHT22;4618;48.818;9.088;2022-07-30T15:14:15;28.90;36.90
9167;DHT22;4618;48.818;9.088;2022-07-30T15:16:41;30.00;38.00
9167;DHT22;4618;48.818;9.088;2022-07-30T15:19:06;30.80;33.30
9167;DHT22;4618;48.818;9.088;2022-07-30T15:21:32;31.40;31.90
9167;DHT22;4618;48.818;9.088;2022-07-30T15:23:57;32.00;30.00
9167;DHT22;4618;48.818;9.088;2022-07-30T15:26:23;30.60;30.00
9167;DHT22;4618;48.818;9.088;2022-07-30T15:28:48;29.40;31.30
9167;DHT22;4618;48.818;9.088;2022-07-30T15:31:14;29.40;33.30
9167;DHT22;4618;48.818;9.088;2022-07-30T15:33:39;29.90;33.90
9167;DHT22;4618;48.818;9.088;2022-07-30T15:36:09;29.90;33.30
9167;DHT22;4618;48.818;9.088;2022-07-30T15:38:36;29.80;33.60
9167;DHT22;4618;48.818;9.088;2022-07-30T15:41:01;30.80;33.20
9167;DHT22;4618;48.818;9.088;2022-07-30T15:43:27;31.50;32.10
9167;DHT22;4618;48.818;9.088;2022-07-30T15:45:53;31.90;30.00
9167;DHT22;4618;48.818;9.088;2022-07-30T15:48:18;31.90;28.50
9167;DHT22;4618;48.818;9.088;2022-07-30T15:50:44;31.70;28.90
9167;DHT22;4618;48.818;9.088;2022-07-30T15:53:10;31.00;28.50
9167;DHT22;4618;48.818;9.088;2022-07-30T15:55:36;30.90;30.30
9167;DHT22;4618;48.818;9.088;2022-07-30T15:58:02;31.40;28.90
9167;DHT22;4618;48.818;9.088;2022-07-30T16:00:28;31.50;28.40
9167;DHT22;4618;48.818;9.088;2022-07-30T16:02:54;31.80;29.10
9167;DHT22;4618;48.818;9.088;2022-07-30T16:05:21;32.40;26.50
9167;DHT22;4618;48.818;9.088;2022-07-30T16:07:46;32.40;26.50
9167;DHT22;4618;48.818;9.088;2022-07-30T16:10:13;31.50;25.90
9167;DHT22;4618;48.818;9.088;2022-07-30T16:12:39;30.70;26.70
9167;DHT22;4618;48.818;9.088;2022-07-30T16:15:08;30.30;27.80
9167;DHT22;4618;48.818;9.088;2022-07-30T16:17:34;29.70;29.80
9167;DHT22;4618;48.818;9.088;2022-07-30T16:20:00;29.30;29.90
9167;DHT22;4618;48.818;9.088;2022-07-30T16:22:26;29.60;30.10
9167;DHT22;4618;48.818;9.088;2022-07-30T16:24:51;30.50;29.30
9167;DHT22;4618;48.818;9.088;2022-07-30T16:27:17;31.00;28.60
9167;DHT22;4618;48.818;9.088;2022-07-30T16:29:43;30.70;27.20
9167;DHT22;4618;48.818;9.088;2022-07-30T16:32:08;30.10;28.50